Terminal Aerodrome Forecast
Issued by NWS

Current Version | Previous Version | Text Only | Print | Product List | Glossary On
Versions: 1 2 3 4 5 6 7 8 9 10 11 12 13 14 15 16 17 18 19 20 21 22 23 24 25 26 27 28
000
FTUS41 KCTP 281133
TAFJST
TAF
KJST 281133Z 2812/2912 22005KT P6SM BKN060
     FM281400 25007KT P6SM VCSH BKN040
     FM281600 10006KT 5SM -SHRA BR OVC030
     FM290500 32006KT 1SM -SHRA BR OVC009=

USA.gov is the U.S. government's official web portal to all federal, state and local government web resources and services.